University Park, PA

7:49 AM EDT on July 04, 2015 (GMT -0400)
College Heights | | Change Station
CLOSE
Current Station
Personal Weather Station
Location: State College, PA
Elevation: 1219 ft
Nearby Weather Stations

Elev 1219 ft 40.80 °N, 77.87 °W | Updated 10 seconds ago

Rain
Rain
62.1 °F
Feels Like 62.1 °F
N
0.0
Wind Variable Wind from ENE
Gusts 0.0 mph

Today
High -- | Low -- °F
--% Chance of Precip.
Yesterday
High -- | Low -- °F
Precip. -- in
5:45 AM 8:46 PM
Waning Gibbous, 93% visible
Pressure 29.92 in
Visibility 2.0 miles
Clouds Overcast 2000 ft
Dew Point 61 °F
Humidity 95%
Rainfall 0.81 in
Snow Depth Not available.
UV 0 out of 12
Pollen .50 out of 12
Air Quality Not available.
Flu Activity Not available.
METAR KUNV 041053Z 00000KT 2SM RA BR OVC020 17/16 A2992

More Conditions Fewer Conditions

Pressure 29.92 in
Visibility 2.0 miles
Clouds Overcast 2000 ft
Dew Point 61 °F
Humidity 95%
Rainfall 0.81 in
Snow Depth Not available.
UV 0 out of 12
Pollen .50 out of 12
Air Quality Not available.
Flu Activity Not available.
METAR KUNV 041053Z 00000KT 2SM RA BR OVC020 17/16 A2992

More Conditions Fewer Conditions

10-Day Weather Forecast

×

Almanac

Astronomy

Jul. 04, 2015 Rise Set
Actual Time
Civil Twilight
Nautical Twilight
Astronomical Twilight
Moon
Length of Visible Light
Length of Day
Tomorrow will be .
, % of the Moon is Illuminated

Today's Extremes

State Highs State Lows

Community

WunderPhotos

Upload Photos

1,834,939 photos uploaded!

WunderBlogs® & News

Nearby

Air Quality

  Air Quality AQ Index Pollutant
Not available.

Snow Depth

Station Depth Elevation

Earthquake Activity

City Distance Mag. Time & Date
Minimum magnitude displayed is 2.5.

Coastal Water Temperatures

Place Temperature

Stations

Nearby Weather Stations

Station Location Temp. Windchill Dew Point Humidity Wind Precip. Elev Updated Type